createdAt,value
2019-05-02T00:02:31.241Z,13.93
2019-05-02T00:04:59.901Z,15.10
2019-05-02T00:07:28.766Z,14.30
2019-05-02T00:09:57.425Z,14.90
2019-05-02T00:12:27.154Z,14.07
2019-05-02T00:14:56.676Z,14.65
2019-05-02T00:17:27.531Z,14.47
2019-05-02T00:19:56.198Z,14.83
2019-05-02T00:22:24.976Z,13.95
2019-05-02T00:24:53.598Z,14.25
2019-05-02T00:27:22.296Z,15.90
2019-05-02T00:29:53.790Z,14.95
2019-05-02T00:32:22.486Z,14.63
2019-05-02T00:34:51.452Z,14.58
2019-05-02T00:37:24.551Z,15.43
2019-05-02T00:39:50.530Z,16.15
2019-05-02T00:42:22.607Z,15.90
2019-05-02T00:44:49.639Z,14.87
2019-05-02T00:47:42.200Z,14.75
2019-05-02T00:50:11.170Z,16.05
2019-05-02T00:52:39.984Z,16.25
2019-05-02T00:55:08.903Z,16.87
2019-05-02T00:57:37.489Z,15.65
2019-05-02T01:00:08.161Z,16.12
2019-05-02T01:02:41.824Z,15.08
2019-05-02T01:05:12.106Z,15.88
2019-05-02T01:07:40.754Z,15.05
2019-05-02T01:10:09.859Z,16.12
2019-05-02T01:12:39.919Z,15.83
2019-05-02T01:15:10.273Z,16.17
2019-05-02T01:17:39.255Z,15.25
2019-05-02T01:20:08.406Z,14.90
2019-05-02T01:22:36.986Z,14.53
2019-05-02T01:25:15.381Z,14.95
2019-05-02T01:27:41.090Z,15.10
2019-05-02T01:30:27.809Z,14.45
2019-05-02T01:33:01.402Z,15.30
2019-05-02T01:35:31.604Z,15.00
2019-05-02T01:38:20.029Z,15.63
2019-05-02T01:40:53.352Z,16.67
2019-05-02T01:43:24.081Z,16.75
2019-05-02T01:45:53.253Z,15.55
2019-05-02T01:48:21.892Z,15.35
2019-05-02T01:50:50.439Z,15.13
2019-05-02T01:53:19.276Z,14.63
2019-05-02T01:55:51.958Z,15.23
2019-05-02T01:58:21.231Z,15.40
2019-05-02T02:00:48.479Z,15.85
2019-05-02T02:03:17.093Z,15.90
2019-05-02T02:05:45.714Z,15.10
2019-05-02T02:08:14.440Z,15.50
2019-05-02T02:10:43.899Z,16.07
2019-05-02T02:13:12.630Z,15.05
2019-05-02T02:15:41.465Z,16.52
2019-05-02T02:18:10.115Z,15.70
2019-05-02T02:20:40.291Z,16.73
2019-05-02T02:23:22.580Z,14.80
2019-05-02T02:26:12.197Z,15.05
2019-05-02T02:28:38.259Z,16.70
2019-05-02T02:31:07.901Z,14.45
2019-05-02T02:33:40.784Z,15.55
2019-05-02T02:36:07.275Z,14.93
2019-05-02T02:38:35.990Z,14.80
2019-05-02T02:41:06.568Z,15.25
2019-05-02T02:43:35.193Z,16.05
2019-05-02T02:46:21.313Z,14.58
2019-05-02T02:48:51.557Z,14.65
2019-05-02T02:51:23.773Z,17.85
2019-05-02T02:53:50.348Z,17.50
2019-05-02T02:56:18.949Z,16.70
2019-05-02T02:58:48.138Z,16.12
2019-05-02T03:01:27.751Z,18.37
2019-05-02T03:03:47.296Z,17.80
2019-05-02T03:06:16.191Z,18.23
2019-05-02T03:08:48.574Z,20.27
2019-05-02T03:11:22.798Z,16.02
2019-05-02T03:14:05.527Z,15.35
2019-05-02T03:16:27.275Z,15.85
2019-05-02T03:18:55.954Z,16.17
2019-05-02T03:21:24.893Z,15.50
2019-05-02T03:24:03.373Z,15.75
2019-05-02T03:26:23.914Z,16.23
2019-05-02T03:28:58.551Z,15.98
2019-05-02T03:31:29.002Z,16.85
2019-05-02T03:33:59.156Z,14.50
2019-05-02T03:36:30.620Z,16.50
2019-05-02T03:38:56.064Z,14.30
2019-05-02T03:41:24.700Z,14.73
2019-05-02T03:44:10.011Z,14.07
2019-05-02T03:46:24.174Z,15.93
2019-05-02T03:49:06.025Z,14.93
2019-05-02T03:51:25.255Z,15.85
2019-05-02T03:54:05.634Z,14.75
2019-05-02T03:56:24.438Z,15.15
2019-05-02T03:58:57.886Z,15.78
2019-05-02T04:01:26.261Z,15.85
2019-05-02T04:03:54.820Z,16.32
2019-05-02T04:06:23.975Z,16.65
2019-05-02T04:08:59.247Z,19.35
2019-05-02T04:11:24.968Z,15.90
2019-05-02T04:13:54.874Z,16.35
2019-05-02T04:16:24.224Z,17.48
2019-05-02T04:18:56.109Z,19.10
2019-05-02T04:21:26.053Z,18.85
2019-05-02T04:23:54.251Z,17.90
2019-05-02T04:26:22.860Z,16.37
2019-05-02T04:28:52.247Z,17.07
2019-05-02T04:31:24.920Z,16.52
2019-05-02T04:33:52.155Z,16.90
2019-05-02T04:36:20.687Z,17.32
2019-05-02T04:38:52.467Z,16.90
2019-05-02T04:41:28.494Z,17.62
2019-05-02T04:43:55.807Z,17.25
2019-05-02T04:46:27.350Z,16.87
2019-05-02T04:48:52.887Z,16.10
2019-05-02T04:51:21.178Z,17.00
2019-05-02T04:53:50.174Z,19.77
2019-05-02T04:56:19.380Z,16.65
2019-05-02T04:58:49.398Z,18.23
2019-05-02T05:01:21.290Z,17.73
2019-05-02T05:03:57.395Z,17.23
2019-05-02T05:06:19.406Z,18.12
2019-05-02T05:08:48.454Z,18.23
2019-05-02T05:11:21.315Z,16.73
2019-05-02T05:13:48.032Z,16.60
2019-05-02T05:16:18.561Z,17.48
2019-05-02T05:18:49.411Z,17.90
2019-05-02T05:21:18.072Z,17.02
2019-05-02T05:23:51.822Z,16.85
2019-05-02T05:26:21.542Z,18.40
2019-05-02T05:28:50.197Z,18.73
2019-05-02T05:31:24.199Z,21.40
2019-05-02T05:33:48.998Z,19.65
2019-05-02T05:36:19.753Z,17.98
2019-05-02T05:38:47.982Z,17.10
2019-05-02T05:41:21.268Z,16.70
2019-05-02T05:43:49.977Z,14.25
2019-05-02T05:46:17.897Z,15.38
2019-05-02T05:48:47.695Z,14.53
2019-05-02T05:51:20.549Z,12.58
2019-05-02T05:53:47.847Z,12.80
2019-05-02T05:56:18.075Z,11.33
2019-05-02T05:58:51.348Z,11.57
2019-05-02T06:01:17.688Z,10.88
2019-05-02T06:03:47.482Z,9.90
2019-05-02T06:06:22.856Z,9.30
2019-05-02T06:08:54.213Z,9.70
2019-05-02T06:11:21.786Z,9.70
2019-05-02T06:13:50.815Z,9.68
2019-05-02T06:16:19.862Z,10.08
2019-05-02T06:18:48.346Z,8.70
2019-05-02T06:21:17.236Z,10.15
2019-05-02T06:23:46.316Z,10.48
2019-05-02T06:26:15.635Z,9.95
2019-05-02T06:28:44.582Z,10.30
2019-05-02T06:31:13.225Z,10.40
2019-05-02T06:33:41.838Z,10.80
2019-05-02T06:36:10.536Z,11.00
2019-05-02T06:38:39.073Z,11.90
2019-05-02T06:41:07.710Z,11.28
2019-05-02T06:43:36.402Z,11.00
2019-05-02T06:46:16.072Z,11.50
2019-05-02T06:48:35.850Z,11.03
2019-05-02T06:51:04.687Z,11.48
2019-05-02T06:53:35.078Z,11.05
2019-05-02T06:56:07.953Z,11.38
2019-05-02T06:58:37.172Z,11.03
2019-05-02T07:01:05.277Z,10.45
2019-05-02T07:03:35.382Z,12.13
2019-05-02T07:06:07.528Z,11.90
2019-05-02T07:08:35.168Z,12.05
2019-05-02T07:11:04.751Z,14.03
2019-05-02T07:13:36.269Z,12.43
2019-05-02T07:16:16.105Z,11.30
2019-05-02T07:18:47.402Z,12.30
2019-05-02T07:21:17.768Z,12.07
2019-05-02T07:23:48.551Z,11.43
2019-05-02T07:26:21.350Z,11.68
2019-05-02T07:28:49.880Z,12.07
2019-05-02T07:31:18.459Z,12.95
2019-05-02T07:33:47.074Z,13.83
2019-05-02T07:36:15.713Z,13.65
2019-05-02T07:38:44.410Z,13.45
2019-05-02T07:41:13.056Z,15.60
2019-05-02T07:43:41.694Z,13.53
2019-05-02T07:46:10.362Z,14.33
2019-05-02T07:48:38.988Z,12.58
2019-05-02T07:51:07.623Z,13.98
2019-05-02T07:53:36.240Z,14.55
2019-05-02T07:56:05.519Z,12.45
2019-05-02T07:58:38.489Z,14.87
2019-05-02T08:01:08.072Z,15.00
2019-05-02T08:03:34.949Z,12.40
2019-05-02T08:06:03.618Z,13.85
2019-05-02T08:08:32.224Z,12.93
2019-05-02T08:11:02.872Z,13.78
2019-05-02T08:13:31.546Z,13.20
2019-05-02T08:16:00.431Z,12.80
2019-05-02T08:18:30.238Z,11.78
2019-05-02T08:20:59.711Z,12.82
2019-05-02T08:23:28.319Z,13.65
2019-05-02T08:25:56.978Z,13.45
2019-05-02T08:28:29.895Z,13.98
2019-05-02T08:30:58.579Z,13.15
2019-05-02T08:33:29.290Z,18.82
2019-05-02T08:35:57.515Z,15.35
2019-05-02T08:38:26.234Z,13.60
2019-05-02T08:40:54.775Z,13.58
2019-05-02T08:43:23.328Z,13.55
2019-05-02T08:45:53.491Z,12.98
2019-05-02T08:48:22.777Z,12.82
2019-05-02T08:50:51.409Z,14.20
2019-05-02T08:53:20.460Z,13.38
2019-05-02T08:55:50.434Z,14.05
2019-05-02T08:58:19.094Z,13.55
2019-05-02T09:00:47.715Z,12.18
2019-05-02T09:03:16.463Z,13.93
2019-05-02T09:05:46.188Z,14.68
2019-05-02T09:08:16.669Z,14.87
2019-05-02T09:10:46.455Z,14.28
2019-05-02T09:13:23.279Z,13.35
2019-05-02T09:15:51.054Z,13.03
2019-05-02T09:18:15.879Z,11.90
2019-05-02T09:20:46.943Z,12.75
2019-05-02T09:23:14.798Z,14.25
2019-05-02T09:25:43.366Z,13.98
2019-05-02T09:28:17.041Z,13.08
2019-05-02T09:30:46.704Z,13.25
2019-05-02T09:33:14.174Z,13.90
2019-05-02T09:35:42.721Z,12.68
2019-05-02T09:38:12.944Z,13.83
2019-05-02T09:40:42.584Z,12.40
2019-05-02T09:43:12.315Z,12.95
2019-05-02T09:45:43.841Z,12.58
2019-05-02T09:48:12.610Z,11.65
2019-05-02T09:50:42.127Z,12.23
2019-05-02T09:53:13.279Z,11.08
2019-05-02T09:55:49.110Z,12.15
2019-05-02T09:58:19.638Z,12.78
2019-05-02T10:00:43.822Z,13.25
2019-05-02T10:03:12.853Z,12.93
2019-05-02T10:05:43.105Z,13.10
2019-05-02T10:08:13.839Z,13.35
2019-05-02T10:10:45.758Z,13.03
2019-05-02T10:13:13.336Z,13.32
2019-05-02T10:15:42.293Z,12.03
2019-05-02T10:18:14.243Z,12.80
2019-05-02T10:20:42.027Z,12.60
2019-05-02T10:23:12.098Z,11.93
2019-05-02T10:25:46.578Z,12.10
2019-05-02T10:28:12.884Z,11.20
2019-05-02T10:30:42.677Z,11.75
2019-05-02T10:33:12.268Z,12.60
2019-05-02T10:35:46.683Z,11.18
2019-05-02T10:38:19.370Z,10.93
2019-05-02T10:40:48.403Z,12.73
2019-05-02T10:43:15.939Z,13.68
2019-05-02T10:45:47.358Z,13.53
2019-05-02T10:48:25.830Z,13.95
2019-05-02T10:50:49.060Z,12.60
2019-05-02T10:53:17.668Z,11.73
2019-05-02T10:55:46.289Z,10.50
2019-05-02T10:58:14.901Z,11.38
2019-05-02T11:00:45.480Z,11.73
2019-05-02T11:03:18.468Z,10.93
2019-05-02T11:05:52.895Z,9.65
2019-05-02T11:08:22.443Z,10.72
2019-05-02T11:10:52.741Z,11.75
2019-05-02T11:13:29.085Z,11.33
2019-05-02T11:16:17.312Z,13.30
2019-05-02T11:18:59.489Z,11.20
2019-05-02T11:21:28.279Z,12.88
2019-05-02T11:23:56.952Z,11.73
2019-05-02T11:26:25.988Z,12.60
2019-05-02T11:28:54.617Z,11.90
2019-05-02T11:31:23.867Z,13.03
2019-05-02T11:33:52.959Z,12.28
2019-05-02T11:36:22.479Z,12.63
2019-05-02T11:38:59.915Z,13.08
2019-05-02T11:41:22.517Z,12.53
2019-05-02T11:43:54.180Z,13.25
2019-05-02T11:46:22.196Z,13.10
2019-05-02T11:48:56.407Z,11.35
2019-05-02T11:51:22.672Z,12.78
2019-05-02T11:53:52.703Z,11.65
2019-05-02T11:56:22.342Z,13.08
2019-05-02T11:58:52.784Z,13.28
2019-05-02T12:01:35.059Z,12.20
2019-05-02T12:03:52.850Z,12.68
2019-05-02T12:06:22.606Z,12.03
2019-05-02T12:08:52.528Z,11.55
2019-05-02T12:11:22.859Z,10.08
2019-05-02T12:13:56.624Z,10.25
2019-05-02T12:16:23.122Z,11.08
2019-05-02T12:18:53.749Z,10.60
2019-05-02T12:21:23.032Z,11.60
2019-05-02T12:23:52.599Z,11.75
2019-05-02T12:26:22.174Z,19.05
2019-05-02T12:28:52.724Z,13.83
2019-05-02T12:31:27.282Z,11.53
2019-05-02T12:33:56.966Z,11.05
2019-05-02T12:36:25.586Z,11.45
2019-05-02T12:38:55.878Z,10.30
2019-05-02T12:41:25.290Z,11.95
2019-05-02T12:43:54.336Z,9.55
2019-05-02T12:46:23.016Z,11.20
2019-05-02T12:48:52.146Z,11.10
2019-05-02T12:51:22.525Z,10.70
2019-05-02T12:53:52.864Z,10.75
2019-05-02T12:56:22.918Z,11.18
2019-05-02T12:58:52.943Z,10.68
2019-05-02T13:01:22.231Z,11.38
2019-05-02T13:03:52.701Z,11.33
2019-05-02T13:06:21.967Z,10.43
2019-05-02T13:08:52.584Z,11.10
2019-05-02T13:11:36.735Z,11.43
2019-05-02T13:14:03.976Z,11.33
2019-05-02T13:16:33.678Z,16.50
2019-05-02T13:19:06.048Z,11.15
2019-05-02T13:21:50.394Z,10.88
2019-05-02T13:24:29.485Z,10.82
2019-05-02T13:26:59.712Z,12.28
2019-05-02T13:29:29.209Z,11.35
2019-05-02T13:32:16.899Z,11.08
2019-05-02T13:35:02.087Z,11.83
2019-05-02T13:37:31.787Z,11.33
2019-05-02T13:40:08.651Z,13.75
2019-05-02T13:42:37.193Z,10.70
2019-05-02T13:45:25.476Z,11.00
2019-05-02T13:47:54.498Z,10.58
2019-05-02T13:50:23.148Z,10.95
2019-05-02T13:52:57.546Z,10.98
2019-05-02T13:55:24.070Z,10.82
2019-05-02T13:57:53.083Z,10.95
2019-05-02T14:00:26.656Z,10.35
2019-05-02T14:02:56.295Z,10.78
2019-05-02T14:05:24.790Z,10.48
2019-05-02T14:08:12.264Z,11.12
2019-05-02T14:10:43.257Z,10.55
2019-05-02T14:13:13.896Z,11.12
2019-05-02T14:15:42.624Z,9.95
2019-05-02T14:18:12.413Z,10.18
2019-05-02T14:20:42.808Z,10.80
2019-05-02T14:23:12.178Z,10.75
2019-05-02T14:25:42.628Z,10.50
2019-05-02T14:28:12.943Z,10.35
2019-05-02T14:30:45.918Z,9.85
2019-05-02T14:33:16.471Z,10.25
2019-05-02T14:35:45.112Z,10.30
2019-05-02T14:38:14.299Z,10.78
2019-05-02T14:41:05.712Z,11.45
2019-05-02T14:43:45.359Z,10.90
2019-05-02T14:46:12.668Z,10.30
2019-05-02T14:48:45.338Z,10.53
2019-05-02T14:51:16.776Z,11.20
2019-05-02T14:53:44.894Z,11.28
2019-05-02T14:56:27.103Z,10.95
2019-05-02T14:58:55.832Z,11.38
2019-05-02T15:01:26.226Z,10.68
2019-05-02T15:03:58.231Z,11.22
2019-05-02T15:06:31.020Z,11.20
2019-05-02T15:08:58.685Z,11.38
2019-05-02T15:11:30.935Z,11.40
2019-05-02T15:13:57.511Z,11.73
2019-05-02T15:16:39.564Z,10.55
2019-05-02T15:18:58.267Z,11.05
2019-05-02T15:21:28.441Z,11.05
2019-05-02T15:23:57.980Z,12.28
2019-05-02T15:26:31.253Z,11.20
2019-05-02T15:28:58.642Z,11.30
2019-05-02T15:31:34.206Z,13.60
2019-05-02T15:34:15.892Z,11.83
2019-05-02T15:36:45.927Z,11.35
2019-05-02T15:41:48.557Z,11.60
2019-05-02T15:44:18.934Z,11.80
2019-05-02T15:46:45.672Z,11.73
2019-05-02T15:49:14.351Z,10.90
2019-05-02T15:51:49.548Z,11.60
2019-05-02T15:54:13.584Z,11.15
2019-05-02T15:57:00.649Z,11.55
2019-05-02T15:59:37.494Z,12.43
2019-05-02T16:02:23.026Z,11.53
2019-05-02T16:04:49.689Z,11.45
2019-05-02T16:07:19.992Z,12.33
2019-05-02T16:09:51.611Z,12.85
2019-05-02T16:12:18.943Z,11.40
2019-05-02T16:14:47.480Z,11.48
2019-05-02T16:17:17.677Z,11.93
2019-05-02T16:19:48.064Z,11.43
2019-05-02T16:22:17.982Z,11.55
2019-05-02T16:24:49.109Z,12.07
2019-05-02T16:27:23.717Z,13.00
2019-05-02T16:29:47.464Z,11.48
2019-05-02T16:32:18.127Z,11.50
2019-05-02T16:34:57.369Z,12.47
2019-05-02T16:37:27.329Z,10.72
2019-05-02T16:39:56.275Z,11.75
2019-05-02T16:42:24.896Z,11.90
2019-05-02T16:44:54.806Z,12.05
2019-05-02T16:47:23.556Z,12.43
2019-05-02T16:49:56.118Z,11.95
2019-05-02T16:52:22.799Z,12.78
2019-05-02T16:54:52.571Z,13.28
2019-05-02T16:57:22.468Z,12.65
2019-05-02T16:59:53.967Z,11.88
2019-05-02T17:02:22.879Z,13.22
2019-05-02T17:04:54.691Z,14.30
2019-05-02T17:07:24.866Z,12.53
2019-05-02T17:10:16.217Z,13.08
2019-05-02T17:12:40.063Z,13.90
2019-05-02T17:15:31.114Z,13.00
2019-05-02T17:17:58.210Z,13.70
2019-05-02T17:20:26.923Z,12.50
2019-05-02T17:23:02.177Z,12.98
2019-05-02T17:25:25.893Z,12.03
2019-05-02T17:28:01.027Z,13.05
2019-05-02T17:30:24.834Z,13.18
2019-05-02T17:32:53.445Z,14.38
2019-05-02T17:35:22.233Z,15.10
2019-05-02T17:37:52.463Z,15.32
2019-05-02T17:40:26.155Z,16.60
2019-05-02T17:42:57.151Z,17.00
2019-05-02T17:45:25.469Z,17.98
2019-05-02T17:47:54.081Z,15.45
2019-05-02T17:50:33.385Z,14.35
2019-05-02T17:53:03.748Z,13.32
2019-05-02T17:55:40.136Z,12.78
2019-05-02T17:58:04.604Z,13.75
2019-05-02T18:00:34.878Z,13.05
2019-05-02T18:03:03.488Z,17.07
2019-05-02T18:05:35.651Z,20.10
2019-05-02T18:08:05.860Z,21.45
2019-05-02T18:10:32.680Z,21.68
2019-05-02T18:13:02.651Z,20.60
2019-05-02T18:15:34.707Z,26.87
2019-05-02T18:18:06.438Z,28.47
2019-05-02T18:20:32.479Z,30.65
2019-05-02T18:23:02.773Z,30.30
2019-05-02T18:25:31.845Z,27.00
2019-05-02T18:28:02.280Z,26.20
2019-05-02T18:30:30.901Z,25.70
2019-05-02T18:33:05.327Z,22.77
2019-05-02T18:35:29.904Z,22.50
2019-05-02T18:37:58.463Z,21.87
2019-05-02T18:40:29.683Z,22.55
2019-05-02T18:43:03.954Z,19.75
2019-05-02T18:45:28.797Z,19.42
2019-05-02T18:48:02.347Z,19.80
2019-05-02T18:50:37.030Z,21.35
2019-05-02T18:53:04.457Z,25.43
2019-05-02T18:55:33.068Z,29.18
2019-05-02T18:58:05.231Z,25.75
2019-05-02T19:00:37.808Z,26.85
2019-05-02T19:03:07.459Z,35.55
2019-05-02T19:05:33.530Z,23.90
2019-05-02T19:08:02.696Z,25.72
2019-05-02T19:10:32.378Z,28.27
2019-05-02T19:13:05.939Z,26.25
2019-05-02T19:15:34.568Z,27.58
2019-05-02T19:18:02.720Z,29.87
2019-05-02T19:20:57.599Z,30.57
2019-05-02T19:23:22.963Z,30.25
2019-05-02T19:25:52.832Z,31.17
2019-05-02T19:28:36.796Z,31.42
2019-05-02T19:31:06.933Z,28.92
2019-05-02T19:33:37.470Z,30.17
2019-05-02T19:36:04.847Z,26.02
2019-05-02T19:38:34.883Z,27.40
2019-05-02T19:41:08.794Z,23.18
2019-05-02T19:43:34.980Z,23.80
2019-05-02T19:46:04.288Z,26.25
2019-05-02T19:48:36.986Z,23.27
2019-05-02T19:51:03.273Z,25.95
2019-05-02T19:53:32.556Z,25.70
2019-05-02T19:56:03.062Z,26.87
2019-05-02T19:58:36.695Z,29.20
2019-05-02T20:01:04.121Z,27.80
2019-05-02T20:03:32.728Z,27.32
2019-05-02T20:06:05.820Z,25.48
2019-05-02T20:08:32.811Z,26.80
2019-05-02T20:11:02.230Z,27.75
2019-05-02T20:13:32.708Z,28.67
2019-05-02T20:16:05.816Z,35.92
2019-05-02T20:18:40.285Z,31.37
2019-05-02T20:21:25.678Z,32.73
2019-05-02T20:23:48.227Z,32.00
2019-05-02T20:26:17.175Z,31.87
2019-05-02T20:28:45.931Z,31.65
2019-05-02T20:31:14.555Z,32.30
2019-05-02T20:33:43.221Z,29.40
2019-05-02T20:36:12.465Z,29.30
2019-05-02T20:38:41.756Z,27.73
2019-05-02T20:41:12.728Z,25.97
2019-05-02T20:43:44.673Z,24.82
2019-05-02T20:46:12.133Z,23.75
2019-05-02T20:48:41.794Z,23.45
2019-05-02T20:51:12.130Z,24.30
2019-05-02T20:53:42.045Z,20.88
2019-05-02T20:56:12.999Z,21.65
2019-05-02T20:58:42.081Z,21.70
2019-05-02T21:01:12.382Z,20.57
2019-05-02T21:03:42.798Z,20.00
2019-05-02T21:06:13.535Z,21.97
2019-05-02T21:08:49.752Z,21.10
2019-05-02T21:11:19.851Z,21.40
2019-05-02T21:13:48.531Z,21.65
2019-05-02T21:16:17.144Z,21.42
2019-05-02T21:18:45.762Z,23.35
2019-05-02T21:21:14.357Z,22.85
2019-05-02T21:23:47.348Z,25.30
2019-05-02T21:26:13.249Z,23.62
2019-05-02T21:28:42.826Z,24.35
2019-05-02T21:31:12.110Z,23.47
2019-05-02T21:33:42.809Z,22.07
2019-05-02T21:36:12.081Z,22.30
2019-05-02T21:38:42.798Z,22.82
2019-05-02T21:41:12.172Z,23.42
2019-05-02T21:43:42.453Z,22.87
2019-05-02T21:46:11.208Z,23.35
2019-05-02T21:48:41.845Z,24.50
2019-05-02T21:51:12.171Z,23.02
2019-05-02T21:53:55.160Z,20.97
2019-05-02T21:56:17.581Z,22.35
2019-05-02T21:59:03.725Z,23.27
2019-05-02T22:01:33.509Z,22.87
2019-05-02T22:04:02.350Z,21.37
2019-05-02T22:06:32.299Z,20.82
2019-05-02T22:09:02.935Z,21.80
2019-05-02T22:11:31.990Z,21.48
2019-05-02T22:14:02.363Z,20.50
2019-05-02T22:16:32.636Z,22.45
2019-05-02T22:19:02.901Z,20.72
2019-05-02T22:21:35.042Z,21.45
2019-05-02T22:24:10.455Z,21.10
2019-05-02T22:26:32.858Z,19.40
2019-05-02T22:29:03.045Z,20.45
2019-05-02T22:31:32.343Z,20.82
2019-05-02T22:34:02.201Z,21.93
2019-05-02T22:36:32.644Z,21.17
2019-05-02T22:39:03.189Z,21.70
2019-05-02T22:41:32.572Z,20.88
2019-05-02T22:44:02.015Z,21.20
2019-05-02T22:46:44.235Z,19.90
2019-05-02T22:49:14.963Z,19.00
2019-05-02T22:51:44.230Z,19.87
2019-05-02T22:54:26.299Z,19.65
2019-05-02T22:56:43.424Z,19.77
2019-05-02T22:59:12.043Z,20.02
2019-05-02T23:01:42.185Z,20.52
2019-05-02T23:04:12.720Z,19.48
2019-05-02T23:06:43.999Z,19.62
2019-05-02T23:09:12.675Z,20.52
2019-05-02T23:11:42.683Z,19.52
2019-05-02T23:14:11.771Z,18.57
2019-05-02T23:16:42.777Z,17.92
2019-05-02T23:19:12.283Z,19.95
2019-05-02T23:21:42.276Z,20.15
2019-05-02T23:24:14.630Z,19.98
2019-05-02T23:26:51.826Z,21.20
2019-05-02T23:29:22.456Z,20.43
2019-05-02T23:31:51.811Z,19.57
2019-05-02T23:34:23.267Z,18.73
2019-05-02T23:36:52.213Z,17.77
2019-05-02T23:39:21.314Z,18.65
2019-05-02T23:41:49.927Z,18.67
2019-05-02T23:44:18.467Z,19.12
2019-05-02T23:46:47.242Z,18.30
2019-05-02T23:49:15.786Z,18.55
2019-05-02T23:51:44.357Z,19.07
2019-05-02T23:54:13.186Z,18.37
2019-05-02T23:56:42.974Z,19.17
2019-05-02T23:59:12.345Z,17.50
